sensor_id;sensor_type;location;lat;lon;timestamp;P1;durP1;ratioP1;P2;durP2;ratioP2
34559;SDS011;20800;55.870;37.328;2022-09-27T00:01:38;103.73;;;6.47;;
34559;SDS011;20800;55.870;37.328;2022-09-27T00:04:04;44.63;;;3.60;;
34559;SDS011;20800;55.870;37.328;2022-09-27T00:06:31;13.90;;;3.00;;
34559;SDS011;20800;55.870;37.328;2022-09-27T00:08:57;1.93;;;1.70;;
34559;SDS011;20800;55.870;37.328;2022-09-27T00:13:52;5.13;;;2.00;;
34559;SDS011;20800;55.870;37.328;2022-09-27T00:16:20;14.47;;;2.57;;
34559;SDS011;20800;55.870;37.328;2022-09-27T00:18:47;11.60;;;2.40;;
34559;SDS011;20800;55.870;37.328;2022-09-27T00:21:13;8.60;;;2.00;;
34559;SDS011;20800;55.870;37.328;2022-09-27T00:23:39;3.90;;;1.97;;
34559;SDS011;20800;55.870;37.328;2022-09-27T00:26:06;4.63;;;1.80;;
34559;SDS011;20800;55.870;37.328;2022-09-27T00:28:33;3.00;;;1.83;;
34559;SDS011;20800;55.870;37.328;2022-09-27T00:30:59;5.03;;;1.90;;
34559;SDS011;20800;55.870;37.328;2022-09-27T00:33:26;9.90;;;2.27;;
34559;SDS011;20800;55.870;37.328;2022-09-27T00:35:52;17.63;;;2.70;;
34559;SDS011;20800;55.870;37.328;2022-09-27T00:38:18;20.20;;;2.77;;
34559;SDS011;20800;55.870;37.328;2022-09-27T00:40:44;32.63;;;3.60;;
34559;SDS011;20800;55.870;37.328;2022-09-27T00:43:18;12.27;;;2.50;;
34559;SDS011;20800;55.870;37.328;2022-09-27T00:45:54;21.53;;;2.57;;
34559;SDS011;20800;55.870;37.328;2022-09-27T00:48:26;8.13;;;2.27;;
34559;SDS011;20800;55.870;37.328;2022-09-27T00:50:57;13.40;;;2.00;;
34559;SDS011;20800;55.870;37.328;2022-09-27T00:53:30;30.73;;;2.37;;
34559;SDS011;20800;55.870;37.328;2022-09-27T00:56:08;8.10;;;1.53;;
34559;SDS011;20800;55.870;37.328;2022-09-27T00:58:38;2.63;;;1.43;;
34559;SDS011;20800;55.870;37.328;2022-09-27T01:01:10;1.90;;;1.70;;
34559;SDS011;20800;55.870;37.328;2022-09-27T01:06:22;4.33;;;1.57;;
34559;SDS011;20800;55.870;37.328;2022-09-27T01:08:49;4.70;;;1.70;;
34559;SDS011;20800;55.870;37.328;2022-09-27T01:16:33;1.63;;;1.10;;
34559;SDS011;20800;55.870;37.328;2022-09-27T01:21:44;2.10;;;1.70;;
34559;SDS011;20800;55.870;37.328;2022-09-27T01:24:51;3.13;;;1.53;;
34559;SDS011;20800;55.870;37.328;2022-09-27T01:33:12;1.63;;;1.37;;
34559;SDS011;20800;55.870;37.328;2022-09-27T01:40:53;2.83;;;1.33;;
34559;SDS011;20800;55.870;37.328;2022-09-27T01:47:19;2.15;;;1.38;;
34559;SDS011;20800;55.870;37.328;2022-09-27T01:52:40;4.97;;;1.63;;
34559;SDS011;20800;55.870;37.328;2022-09-27T01:55:25;3.33;;;1.40;;
34559;SDS011;20800;55.870;37.328;2022-09-27T01:58:18;2.20;;;1.47;;
34559;SDS011;20800;55.870;37.328;2022-09-27T02:00:51;4.10;;;1.70;;
34559;SDS011;20800;55.870;37.328;2022-09-27T02:04:02;4.80;;;1.50;;
34559;SDS011;20800;55.870;37.328;2022-09-27T02:06:34;5.57;;;1.43;;
34559;SDS011;20800;55.870;37.328;2022-09-27T02:09:30;3.97;;;1.50;;
34559;SDS011;20800;55.870;37.328;2022-09-27T02:12:24;5.23;;;1.37;;
34559;SDS011;20800;55.870;37.328;2022-09-27T02:15:10;4.27;;;1.17;;
34559;SDS011;20800;55.870;37.328;2022-09-27T02:17:57;8.87;;;1.20;;
34559;SDS011;20800;55.870;37.328;2022-09-27T02:20:34;6.53;;;1.20;;
34559;SDS011;20800;55.870;37.328;2022-09-27T02:23:16;3.30;;;0.97;;
34559;SDS011;20800;55.870;37.328;2022-09-27T02:25:56;6.87;;;0.70;;
34559;SDS011;20800;55.870;37.328;2022-09-27T02:31:23;4.63;;;0.90;;
34559;SDS011;20800;55.870;37.328;2022-09-27T02:33:56;3.33;;;0.77;;
34559;SDS011;20800;55.870;37.328;2022-09-27T02:36:27;2.03;;;0.97;;
34559;SDS011;20800;55.870;37.328;2022-09-27T02:38:55;1.83;;;1.27;;
34559;SDS011;20800;55.870;37.328;2022-09-27T02:41:22;1.13;;;0.90;;
34559;SDS011;20800;55.870;37.328;2022-09-27T02:43:49;1.27;;;0.80;;
34559;SDS011;20800;55.870;37.328;2022-09-27T02:49:23;2.17;;;1.10;;
34559;SDS011;20800;55.870;37.328;2022-09-27T03:01:01;3.93;;;1.30;;
34559;SDS011;20800;55.870;37.328;2022-09-27T03:06:45;9.47;;;1.60;;
34559;SDS011;20800;55.870;37.328;2022-09-27T03:09:13;30.67;;;2.23;;
34559;SDS011;20800;55.870;37.328;2022-09-27T03:11:46;7.40;;;1.30;;
34559;SDS011;20800;55.870;37.328;2022-09-27T03:14:13;3.33;;;1.10;;
34559;SDS011;20800;55.870;37.328;2022-09-27T03:16:49;5.97;;;1.20;;
34559;SDS011;20800;55.870;37.328;2022-09-27T03:19:35;6.63;;;1.13;;
34559;SDS011;20800;55.870;37.328;2022-09-27T03:22:40;9.60;;;1.43;;
34559;SDS011;20800;55.870;37.328;2022-09-27T03:25:06;3.13;;;1.40;;
34559;SDS011;20800;55.870;37.328;2022-09-27T03:27:33;4.93;;;1.90;;
34559;SDS011;20800;55.870;37.328;2022-09-27T03:30:00;7.70;;;1.20;;
34559;SDS011;20800;55.870;37.328;2022-09-27T03:32:26;2.83;;;1.67;;
34559;SDS011;20800;55.870;37.328;2022-09-27T03:35:18;3.90;;;1.38;;
34559;SDS011;20800;55.870;37.328;2022-09-27T03:37:44;3.07;;;1.10;;
34559;SDS011;20800;55.870;37.328;2022-09-27T03:40:11;1.63;;;1.00;;
34559;SDS011;20800;55.870;37.328;2022-09-27T03:42:37;4.10;;;1.30;;
34559;SDS011;20800;55.870;37.328;2022-09-27T03:45:04;5.00;;;1.20;;
34559;SDS011;20800;55.870;37.328;2022-09-27T03:47:31;1.60;;;1.20;;
34559;SDS011;20800;55.870;37.328;2022-09-27T03:49:57;5.73;;;1.70;;
34559;SDS011;20800;55.870;37.328;2022-09-27T03:52:23;8.70;;;1.60;;
34559;SDS011;20800;55.870;37.328;2022-09-27T03:54:49;5.40;;;1.40;;
34559;SDS011;20800;55.870;37.328;2022-09-27T03:57:15;5.83;;;1.30;;
34559;SDS011;20800;55.870;37.328;2022-09-27T03:59:41;4.47;;;1.53;;
34559;SDS011;20800;55.870;37.328;2022-09-27T04:02:42;12.47;;;2.10;;
34559;SDS011;20800;55.870;37.328;2022-09-27T04:05:21;3.87;;;1.80;;
34559;SDS011;20800;55.870;37.328;2022-09-27T04:07:50;8.53;;;2.10;;
34559;SDS011;20800;55.870;37.328;2022-09-27T04:10:17;10.07;;;2.30;;
34559;SDS011;20800;55.870;37.328;2022-09-27T04:12:43;7.73;;;2.30;;
34559;SDS011;20800;55.870;37.328;2022-09-27T04:15:10;13.73;;;2.33;;
34559;SDS011;20800;55.870;37.328;2022-09-27T04:18:05;8.83;;;2.83;;
34559;SDS011;20800;55.870;37.328;2022-09-27T04:20:32;7.30;;;2.97;;
34559;SDS011;20800;55.870;37.328;2022-09-27T04:23:02;10.77;;;3.90;;
34559;SDS011;20800;55.870;37.328;2022-09-27T04:25:28;17.13;;;3.93;;
34559;SDS011;20800;55.870;37.328;2022-09-27T04:27:58;15.83;;;3.77;;
34559;SDS011;20800;55.870;37.328;2022-09-27T04:30:27;25.63;;;4.40;;
34559;SDS011;20800;55.870;37.328;2022-09-27T04:32:53;56.70;;;6.87;;
34559;SDS011;20800;55.870;37.328;2022-09-27T04:35:42;20.90;;;4.30;;
34559;SDS011;20800;55.870;37.328;2022-09-27T04:38:27;23.73;;;4.13;;
34559;SDS011;20800;55.870;37.328;2022-09-27T04:40:54;25.17;;;4.87;;
34559;SDS011;20800;55.870;37.328;2022-09-27T04:43:21;33.27;;;4.70;;
34559;SDS011;20800;55.870;37.328;2022-09-27T04:45:47;36.17;;;5.77;;
34559;SDS011;20800;55.870;37.328;2022-09-27T04:48:13;29.67;;;5.57;;
34559;SDS011;20800;55.870;37.328;2022-09-27T04:50:39;136.87;;;15.47;;
34559;SDS011;20800;55.870;37.328;2022-09-27T04:53:06;38.00;;;5.30;;
34559;SDS011;20800;55.870;37.328;2022-09-27T04:55:32;29.63;;;5.10;;
34559;SDS011;20800;55.870;37.328;2022-09-27T04:57:59;107.63;;;11.00;;
34559;SDS011;20800;55.870;37.328;2022-09-27T05:00:26;444.00;;;36.00;;
34559;SDS011;20800;55.870;37.328;2022-09-27T05:03:00;23.23;;;4.35;;
34559;SDS011;20800;55.870;37.328;2022-09-27T05:05:50;18.47;;;4.77;;
34559;SDS011;20800;55.870;37.328;2022-09-27T05:08:16;24.70;;;5.25;;
34559;SDS011;20800;55.870;37.328;2022-09-27T05:11:00;55.15;;;8.25;;
34559;SDS011;20800;55.870;37.328;2022-09-27T05:13:26;564.55;;;43.25;;
34559;SDS011;20800;55.870;37.328;2022-09-27T05:15:52;17.75;;;4.53;;
34559;SDS011;20800;55.870;37.328;2022-09-27T05:18:46;14.43;;;3.85;;
34559;SDS011;20800;55.870;37.328;2022-09-27T05:21:32;12.95;;;3.88;;
34559;SDS011;20800;55.870;37.328;2022-09-27T05:23:58;16.23;;;3.95;;
34559;SDS011;20800;55.870;37.328;2022-09-27T05:26:26;11.88;;;3.88;;
34559;SDS011;20800;55.870;37.328;2022-09-27T05:28:51;14.20;;;4.10;;
34559;SDS011;20800;55.870;37.328;2022-09-27T05:31:17;10.65;;;3.80;;
34559;SDS011;20800;55.870;37.328;2022-09-27T05:33:43;14.40;;;4.40;;
34559;SDS011;20800;55.870;37.328;2022-09-27T05:36:30;27.10;;;4.65;;
34559;SDS011;20800;55.870;37.328;2022-09-27T05:38:57;8.07;;;4.30;;
34559;SDS011;20800;55.870;37.328;2022-09-27T05:41:24;32.55;;;4.70;;
34559;SDS011;20800;55.870;37.328;2022-09-27T05:43:50;46.83;;;5.50;;
34559;SDS011;20800;55.870;37.328;2022-09-27T05:46:16;31.67;;;5.63;;
34559;SDS011;20800;55.870;37.328;2022-09-27T05:48:43;35.03;;;5.82;;
34559;SDS011;20800;55.870;37.328;2022-09-27T05:51:10;23.73;;;5.85;;
34559;SDS011;20800;55.870;37.328;2022-09-27T05:53:38;25.55;;;6.57;;
34559;SDS011;20800;55.870;37.328;2022-09-27T05:56:10;96.03;;;8.00;;
34559;SDS011;20800;55.870;37.328;2022-09-27T05:58:54;39.70;;;7.82;;
34559;SDS011;20800;55.870;37.328;2022-09-27T06:01:22;57.63;;;8.30;;
34559;SDS011;20800;55.870;37.328;2022-09-27T06:04:12;80.93;;;8.48;;
34559;SDS011;20800;55.870;37.328;2022-09-27T06:06:54;68.85;;;8.05;;
34559;SDS011;20800;55.870;37.328;2022-09-27T06:09:23;86.63;;;6.63;;
34559;SDS011;20800;55.870;37.328;2022-09-27T06:11:50;73.65;;;6.65;;
34559;SDS011;20800;55.870;37.328;2022-09-27T06:14:17;79.43;;;7.35;;
34559;SDS011;20800;55.870;37.328;2022-09-27T06:17:04;66.47;;;7.95;;
34559;SDS011;20800;55.870;37.328;2022-09-27T06:19:32;101.22;;;8.13;;
34559;SDS011;20800;55.870;37.328;2022-09-27T06:22:00;40.05;;;8.43;;
34559;SDS011;20800;55.870;37.328;2022-09-27T06:24:35;34.50;;;8.98;;
34559;SDS011;20800;55.870;37.328;2022-09-27T06:27:06;77.28;;;9.88;;
34559;SDS011;20800;55.870;37.328;2022-09-27T06:29:47;88.72;;;7.15;;
34559;SDS011;20800;55.870;37.328;2022-09-27T06:32:28;45.88;;;7.40;;
34559;SDS011;20800;55.870;37.328;2022-09-27T06:35:09;50.15;;;7.68;;
34559;SDS011;20800;55.870;37.328;2022-09-27T06:37:35;28.52;;;8.38;;
34559;SDS011;20800;55.870;37.328;2022-09-27T06:40:01;40.22;;;9.55;;
34559;SDS011;20800;55.870;37.328;2022-09-27T06:42:46;41.47;;;9.18;;
34559;SDS011;20800;55.870;37.328;2022-09-27T06:45:21;31.00;;;9.45;;
34559;SDS011;20800;55.870;37.328;2022-09-27T06:48:07;16.75;;;8.77;;
34559;SDS011;20800;55.870;37.328;2022-09-27T06:50:43;35.67;;;9.68;;
34559;SDS011;20800;55.870;37.328;2022-09-27T06:53:11;49.08;;;9.52;;
34559;SDS011;20800;55.870;37.328;2022-09-27T06:55:40;21.13;;;10.35;;
34559;SDS011;20800;55.870;37.328;2022-09-27T06:58:06;19.83;;;10.18;;
34559;SDS011;20800;55.870;37.328;2022-09-27T07:01:26;13.98;;;10.38;;
34559;SDS011;20800;55.870;37.328;2022-09-27T07:04:11;14.80;;;10.57;;
34559;SDS011;20800;55.870;37.328;2022-09-27T07:06:52;13.90;;;10.55;;
34559;SDS011;20800;55.870;37.328;2022-09-27T07:09:23;22.93;;;10.97;;
34559;SDS011;20800;55.870;37.328;2022-09-27T07:11:49;16.05;;;11.35;;
34559;SDS011;20800;55.870;37.328;2022-09-27T07:14:15;17.35;;;11.88;;
34559;SDS011;20800;55.870;37.328;2022-09-27T07:16:42;22.55;;;14.15;;
34559;SDS011;20800;55.870;37.328;2022-09-27T07:19:10;21.00;;;13.27;;
34559;SDS011;20800;55.870;37.328;2022-09-27T07:21:37;23.35;;;14.88;;
34559;SDS011;20800;55.870;37.328;2022-09-27T07:24:04;28.23;;;15.68;;
34559;SDS011;20800;55.870;37.328;2022-09-27T07:26:31;23.02;;;15.77;;
34559;SDS011;20800;55.870;37.328;2022-09-27T07:28:57;26.52;;;17.17;;
34559;SDS011;20800;55.870;37.328;2022-09-27T07:31:25;19.75;;;14.70;;
34559;SDS011;20800;55.870;37.328;2022-09-27T07:33:53;29.60;;;17.65;;
34559;SDS011;20800;55.870;37.328;2022-09-27T07:36:19;24.77;;;16.45;;
34559;SDS011;20800;55.870;37.328;2022-09-27T07:38:45;25.48;;;17.42;;
34559;SDS011;20800;55.870;37.328;2022-09-27T07:41:13;24.45;;;17.08;;
34559;SDS011;20800;55.870;37.328;2022-09-27T07:43:40;25.60;;;17.88;;
34559;SDS011;20800;55.870;37.328;2022-09-27T07:46:09;30.17;;;19.35;;
34559;SDS011;20800;55.870;37.328;2022-09-27T07:49:01;25.90;;;18.33;;
34559;SDS011;20800;55.870;37.328;2022-09-27T07:51:40;25.30;;;17.17;;
34559;SDS011;20800;55.870;37.328;2022-09-27T07:54:16;22.45;;;16.20;;
34559;SDS011;20800;55.870;37.328;2022-09-27T07:57:06;25.42;;;15.88;;
34559;SDS011;20800;55.870;37.328;2022-09-27T07:59:42;20.63;;;15.77;;
34559;SDS011;20800;55.870;37.328;2022-09-27T08:02:14;20.33;;;15.68;;
34559;SDS011;20800;55.870;37.328;2022-09-27T08:04:42;20.98;;;16.73;;
34559;SDS011;20800;55.870;37.328;2022-09-27T08:07:09;24.30;;;15.68;;
34559;SDS011;20800;55.870;37.328;2022-09-27T08:09:36;24.73;;;17.48;;
34559;SDS011;20800;55.870;37.328;2022-09-27T08:12:02;20.33;;;15.07;;
34559;SDS011;20800;55.870;37.328;2022-09-27T08:14:29;18.92;;;14.55;;
34559;SDS011;20800;55.870;37.328;2022-09-27T08:16:56;19.48;;;15.10;;
34559;SDS011;20800;55.870;37.328;2022-09-27T08:19:28;15.75;;;14.00;;
34559;SDS011;20800;55.870;37.328;2022-09-27T08:22:03;22.52;;;14.95;;
34559;SDS011;20800;55.870;37.328;2022-09-27T08:24:36;23.02;;;15.00;;
34559;SDS011;20800;55.870;37.328;2022-09-27T08:27:25;18.90;;;13.77;;
34559;SDS011;20800;55.870;37.328;2022-09-27T08:29:54;20.60;;;15.05;;
34559;SDS011;20800;55.870;37.328;2022-09-27T08:32:21;18.40;;;14.38;;
34559;SDS011;20800;55.870;37.328;2022-09-27T08:34:47;19.95;;;14.95;;
34559;SDS011;20800;55.870;37.328;2022-09-27T08:37:13;17.17;;;13.93;;
34559;SDS011;20800;55.870;37.328;2022-09-27T08:39:39;19.55;;;13.50;;
34559;SDS011;20800;55.870;37.328;2022-09-27T08:44:51;21.23;;;14.48;;
34559;SDS011;20800;55.870;37.328;2022-09-27T08:47:34;16.08;;;12.80;;
34559;SDS011;20800;55.870;37.328;2022-09-27T08:55:39;21.65;;;14.77;;
34559;SDS011;20800;55.870;37.328;2022-09-27T08:58:24;17.25;;;13.07;;
34559;SDS011;20800;55.870;37.328;2022-09-27T09:00:51;15.30;;;13.20;;
34559;SDS011;20800;55.870;37.328;2022-09-27T09:03:26;14.93;;;12.07;;
34559;SDS011;20800;55.870;37.328;2022-09-27T09:08:37;19.00;;;13.23;;
34559;SDS011;20800;55.870;37.328;2022-09-27T09:17:25;13.95;;;10.80;;
34559;SDS011;20800;55.870;37.328;2022-09-27T09:23:30;12.35;;;10.18;;
34559;SDS011;20800;55.870;37.328;2022-09-27T09:34:53;10.73;;;8.25;;
34559;SDS011;20800;55.870;37.328;2022-09-27T09:37:44;8.77;;;8.00;;
34559;SDS011;20800;55.870;37.328;2022-09-27T09:40:24;9.10;;;8.20;;
34559;SDS011;20800;55.870;37.328;2022-09-27T09:43:02;9.70;;;7.20;;
34559;SDS011;20800;55.870;37.328;2022-09-27T09:45:44;9.90;;;6.47;;
34559;SDS011;20800;55.870;37.328;2022-09-27T09:50:45;7.78;;;7.15;;
34559;SDS011;20800;55.870;37.328;2022-09-27T09:53:16;10.23;;;7.78;;
34559;SDS011;20800;55.870;37.328;2022-09-27T09:55:47;7.95;;;6.63;;
34559;SDS011;20800;55.870;37.328;2022-09-27T10:04:27;7.95;;;7.15;;
34559;SDS011;20800;55.870;37.328;2022-09-27T10:06:56;8.27;;;7.47;;
34559;SDS011;20800;55.870;37.328;2022-09-27T10:09:27;9.13;;;7.35;;
34559;SDS011;20800;55.870;37.328;2022-09-27T10:12:16;7.22;;;6.60;;
34559;SDS011;20800;55.870;37.328;2022-09-27T10:14:44;12.32;;;7.30;;
34559;SDS011;20800;55.870;37.328;2022-09-27T10:17:14;8.95;;;7.40;;
34559;SDS011;20800;55.870;37.328;2022-09-27T10:19:43;8.65;;;6.85;;
34559;SDS011;20800;55.870;37.328;2022-09-27T10:24:52;9.30;;;7.28;;
34559;SDS011;20800;55.870;37.328;2022-09-27T10:27:50;9.15;;;7.18;;
34559;SDS011;20800;55.870;37.328;2022-09-27T10:32:50;10.10;;;6.30;;
34559;SDS011;20800;55.870;37.328;2022-09-27T10:35:47;7.22;;;6.53;;
34559;SDS011;20800;55.870;37.328;2022-09-27T10:38:22;8.48;;;6.60;;
34559;SDS011;20800;55.870;37.328;2022-09-27T10:41:16;9.10;;;6.28;;
34559;SDS011;20800;55.870;37.328;2022-09-27T10:43:48;7.72;;;6.57;;
34559;SDS011;20800;55.870;37.328;2022-09-27T10:46:27;9.85;;;6.97;;
34559;SDS011;20800;55.870;37.328;2022-09-27T10:49:21;9.73;;;6.28;;
34559;SDS011;20800;55.870;37.328;2022-09-27T10:51:56;10.75;;;6.45;;
34559;SDS011;20800;55.870;37.328;2022-09-27T10:54:29;11.10;;;6.75;;
34559;SDS011;20800;55.870;37.328;2022-09-27T10:57:31;8.30;;;6.35;;
34559;SDS011;20800;55.870;37.328;2022-09-27T11:00:38;8.10;;;6.68;;
34559;SDS011;20800;55.870;37.328;2022-09-27T11:02:53;7.78;;;6.00;;
34559;SDS011;20800;55.870;37.328;2022-09-27T11:07:53;10.48;;;6.13;;
34559;SDS011;20800;55.870;37.328;2022-09-27T11:10:30;6.25;;;5.60;;
34559;SDS011;20800;55.870;37.328;2022-09-27T11:13:07;8.40;;;5.90;;
34559;SDS011;20800;55.870;37.328;2022-09-27T11:18:41;8.73;;;4.80;;
34559;SDS011;20800;55.870;37.328;2022-09-27T11:21:20;6.25;;;4.95;;
34559;SDS011;20800;55.870;37.328;2022-09-27T11:26:35;5.90;;;4.65;;
34559;SDS011;20800;55.870;37.328;2022-09-27T11:35:39;6.97;;;4.60;;
34559;SDS011;20800;55.870;37.328;2022-09-27T11:38:52;6.20;;;4.63;;
34559;SDS011;20800;55.870;37.328;2022-09-27T11:44:29;5.97;;;4.53;;
34559;SDS011;20800;55.870;37.328;2022-09-27T11:50:40;5.85;;;4.38;;
34559;SDS011;20800;55.870;37.328;2022-09-27T11:53:12;4.25;;;3.80;;
34559;SDS011;20800;55.870;37.328;2022-09-27T12:01:32;5.53;;;3.30;;
34559;SDS011;20800;55.870;37.328;2022-09-27T12:07:00;4.43;;;2.95;;
34559;SDS011;20800;55.870;37.328;2022-09-27T12:09:41;3.90;;;3.45;;
34559;SDS011;20800;55.870;37.328;2022-09-27T12:12:18;4.10;;;3.63;;
34559;SDS011;20800;55.870;37.328;2022-09-27T12:15:12;8.82;;;2.90;;
34559;SDS011;20800;55.870;37.328;2022-09-27T12:17:44;3.20;;;2.85;;
34559;SDS011;20800;55.870;37.328;2022-09-27T12:20:21;4.57;;;2.42;;
34559;SDS011;20800;55.870;37.328;2022-09-27T12:23:10;2.83;;;2.50;;
34559;SDS011;20800;55.870;37.328;2022-09-27T12:26:01;6.85;;;2.58;;
34559;SDS011;20800;55.870;37.328;2022-09-27T12:31:43;3.33;;;2.88;;
34559;SDS011;20800;55.870;37.328;2022-09-27T12:37:18;4.97;;;3.08;;
34559;SDS011;20800;55.870;37.328;2022-09-27T12:40:05;3.97;;;2.60;;
34559;SDS011;20800;55.870;37.328;2022-09-27T12:42:44;4.65;;;2.85;;
34559;SDS011;20800;55.870;37.328;2022-09-27T12:45:35;2.78;;;2.35;;
34559;SDS011;20800;55.870;37.328;2022-09-27T12:59:44;4.40;;;3.63;;
34559;SDS011;20800;55.870;37.328;2022-09-27T13:13:41;5.18;;;3.10;;
34559;SDS011;20800;55.870;37.328;2022-09-27T13:16:08;6.10;;;2.30;;
34559;SDS011;20800;55.870;37.328;2022-09-27T13:18:53;4.25;;;2.38;;
34559;SDS011;20800;55.870;37.328;2022-09-27T13:32:39;2.45;;;2.10;;
34559;SDS011;20800;55.870;37.328;2022-09-27T13:35:24;3.80;;;2.22;;
34559;SDS011;20800;55.870;37.328;2022-09-27T13:37:57;5.05;;;1.98;;
34559;SDS011;20800;55.870;37.328;2022-09-27T13:40:34;5.53;;;2.78;;
34559;SDS011;20800;55.870;37.328;2022-09-27T13:43:26;3.35;;;1.70;;
34559;SDS011;20800;55.870;37.328;2022-09-27T13:46:24;5.30;;;2.03;;
34559;SDS011;20800;55.870;37.328;2022-09-27T13:49:02;2.83;;;1.95;;
34559;SDS011;20800;55.870;37.328;2022-09-27T13:52:01;2.75;;;1.45;;
34559;SDS011;20800;55.870;37.328;2022-09-27T13:54:50;4.00;;;1.98;;
34559;SDS011;20800;55.870;37.328;2022-09-27T14:00:02;2.72;;;1.83;;
34559;SDS011;20800;55.870;37.328;2022-09-27T14:02:54;3.72;;;1.58;;
34559;SDS011;20800;55.870;37.328;2022-09-27T14:05:33;3.30;;;2.03;;
34559;SDS011;20800;55.870;37.328;2022-09-27T14:08:03;2.92;;;1.83;;
34559;SDS011;20800;55.870;37.328;2022-09-27T14:10:33;3.65;;;1.90;;
34559;SDS011;20800;55.870;37.328;2022-09-27T14:13:02;3.20;;;2.08;;
34559;SDS011;20800;55.870;37.328;2022-09-27T14:15:33;3.30;;;2.17;;
34559;SDS011;20800;55.870;37.328;2022-09-27T14:18:02;3.08;;;1.67;;
34559;SDS011;20800;55.870;37.328;2022-09-27T14:23:12;2.28;;;2.08;;
34559;SDS011;20800;55.870;37.328;2022-09-27T14:25:49;4.55;;;1.88;;
34559;SDS011;20800;55.870;37.328;2022-09-27T14:28:25;4.00;;;1.95;;
34559;SDS011;20800;55.870;37.328;2022-09-27T14:31:20;3.83;;;2.15;;
34559;SDS011;20800;55.870;37.328;2022-09-27T14:34:20;4.93;;;2.97;;
34559;SDS011;20800;55.870;37.328;2022-09-27T14:36:46;3.28;;;1.90;;
34559;SDS011;20800;55.870;37.328;2022-09-27T14:39:41;5.70;;;2.30;;
34559;SDS011;20800;55.870;37.328;2022-09-27T14:42:26;4.95;;;2.65;;
34559;SDS011;20800;55.870;37.328;2022-09-27T14:44:54;2.25;;;1.90;;
34559;SDS011;20800;55.870;37.328;2022-09-27T14:47:24;2.38;;;2.00;;
34559;SDS011;20800;55.870;37.328;2022-09-27T14:49:52;3.38;;;2.10;;
34559;SDS011;20800;55.870;37.328;2022-09-27T14:52:29;3.58;;;2.15;;
34559;SDS011;20800;55.870;37.328;2022-09-27T14:57:32;3.22;;;2.13;;
34559;SDS011;20800;55.870;37.328;2022-09-27T15:00:22;4.28;;;2.45;;
34559;SDS011;20800;55.870;37.328;2022-09-27T15:02:49;4.72;;;2.30;;
34559;SDS011;20800;55.870;37.328;2022-09-27T15:05:23;2.95;;;2.40;;
34559;SDS011;20800;55.870;37.328;2022-09-27T15:07:51;7.05;;;2.60;;
34559;SDS011;20800;55.870;37.328;2022-09-27T15:10:20;2.78;;;1.95;;
34559;SDS011;20800;55.870;37.328;2022-09-27T15:12:48;3.63;;;2.55;;
34559;SDS011;20800;55.870;37.328;2022-09-27T15:15:21;4.70;;;2.22;;
34559;SDS011;20800;55.870;37.328;2022-09-27T15:17:50;6.78;;;2.78;;
34559;SDS011;20800;55.870;37.328;2022-09-27T15:20:27;4.03;;;2.88;;
34559;SDS011;20800;55.870;37.328;2022-09-27T15:22:59;9.82;;;2.72;;
34559;SDS011;20800;55.870;37.328;2022-09-27T15:25:33;6.85;;;2.40;;
34559;SDS011;20800;55.870;37.328;2022-09-27T15:30:40;7.63;;;3.22;;
34559;SDS011;20800;55.870;37.328;2022-09-27T15:33:20;4.88;;;2.15;;
34559;SDS011;20800;55.870;37.328;2022-09-27T15:35:56;3.78;;;2.35;;
34559;SDS011;20800;55.870;37.328;2022-09-27T15:38:31;6.35;;;2.83;;
34559;SDS011;20800;55.870;37.328;2022-09-27T15:43:32;4.57;;;2.65;;
34559;SDS011;20800;55.870;37.328;2022-09-27T15:51:45;11.00;;;2.72;;
34559;SDS011;20800;55.870;37.328;2022-09-27T15:54:12;4.53;;;3.05;;
34559;SDS011;20800;55.870;37.328;2022-09-27T15:56:41;2.80;;;1.98;;
34559;SDS011;20800;55.870;37.328;2022-09-27T15:59:11;6.28;;;2.60;;
34559;SDS011;20800;55.870;37.328;2022-09-27T16:02:03;5.53;;;2.80;;
34559;SDS011;20800;55.870;37.328;2022-09-27T16:04:40;8.15;;;2.92;;
34559;SDS011;20800;55.870;37.328;2022-09-27T16:07:06;7.78;;;2.88;;
34559;SDS011;20800;55.870;37.328;2022-09-27T16:09:34;3.33;;;2.60;;
34559;SDS011;20800;55.870;37.328;2022-09-27T16:12:00;6.88;;;3.03;;
34559;SDS011;20800;55.870;37.328;2022-09-27T16:14:26;9.27;;;3.00;;
34559;SDS011;20800;55.870;37.328;2022-09-27T16:16:53;3.38;;;2.45;;
34559;SDS011;20800;55.870;37.328;2022-09-27T16:19:21;5.40;;;2.72;;
34559;SDS011;20800;55.870;37.328;2022-09-27T16:21:47;6.28;;;2.63;;
34559;SDS011;20800;55.870;37.328;2022-09-27T16:24:14;4.53;;;3.10;;
34559;SDS011;20800;55.870;37.328;2022-09-27T16:26:41;4.05;;;2.40;;
34559;SDS011;20800;55.870;37.328;2022-09-27T16:29:08;6.82;;;2.90;;
34559;SDS011;20800;55.870;37.328;2022-09-27T16:31:37;4.25;;;2.92;;
34559;SDS011;20800;55.870;37.328;2022-09-27T16:34:04;5.63;;;2.40;;
34559;SDS011;20800;55.870;37.328;2022-09-27T16:36:30;2.92;;;2.38;;
34559;SDS011;20800;55.870;37.328;2022-09-27T16:38:58;3.40;;;2.60;;
34559;SDS011;20800;55.870;37.328;2022-09-27T16:41:24;6.38;;;2.70;;
34559;SDS011;20800;55.870;37.328;2022-09-27T16:43:50;2.70;;;2.40;;
34559;SDS011;20800;55.870;37.328;2022-09-27T16:46:16;4.28;;;2.70;;
34559;SDS011;20800;55.870;37.328;2022-09-27T16:48:44;5.75;;;3.28;;
34559;SDS011;20800;55.870;37.328;2022-09-27T16:51:12;4.13;;;2.70;;
34559;SDS011;20800;55.870;37.328;2022-09-27T16:54:02;2.60;;;2.40;;
34559;SDS011;20800;55.870;37.328;2022-09-27T16:56:30;5.05;;;2.58;;
34559;SDS011;20800;55.870;37.328;2022-09-27T16:58:57;9.20;;;3.05;;
34559;SDS011;20800;55.870;37.328;2022-09-27T17:03:55;4.15;;;2.30;;
34559;SDS011;20800;55.870;37.328;2022-09-27T17:06:21;4.43;;;2.70;;
34559;SDS011;20800;55.870;37.328;2022-09-27T17:08:48;6.00;;;3.10;;
34559;SDS011;20800;55.870;37.328;2022-09-27T17:11:15;2.00;;;1.80;;
34559;SDS011;20800;55.870;37.328;2022-09-27T17:13:43;4.88;;;2.50;;
34559;SDS011;20800;55.870;37.328;2022-09-27T17:16:10;3.38;;;2.20;;
34559;SDS011;20800;55.870;37.328;2022-09-27T17:18:38;2.72;;;2.08;;
34559;SDS011;20800;55.870;37.328;2022-09-27T17:21:05;2.85;;;2.25;;
34559;SDS011;20800;55.870;37.328;2022-09-27T17:23:33;3.88;;;2.40;;
34559;SDS011;20800;55.870;37.328;2022-09-27T17:26:07;3.30;;;2.60;;
34559;SDS011;20800;55.870;37.328;2022-09-27T17:28:38;4.50;;;2.65;;
34559;SDS011;20800;55.870;37.328;2022-09-27T17:31:06;3.58;;;2.40;;
34559;SDS011;20800;55.870;37.328;2022-09-27T17:33:35;7.35;;;3.05;;
34559;SDS011;20800;55.870;37.328;2022-09-27T17:36:13;4.25;;;2.85;;
34559;SDS011;20800;55.870;37.328;2022-09-27T17:38:44;6.00;;;3.20;;
34559;SDS011;20800;55.870;37.328;2022-09-27T17:41:13;5.78;;;4.18;;
34559;SDS011;20800;55.870;37.328;2022-09-27T17:43:42;4.38;;;2.80;;
34559;SDS011;20800;55.870;37.328;2022-09-27T17:46:15;4.05;;;2.67;;
34559;SDS011;20800;55.870;37.328;2022-09-27T17:48:42;7.15;;;3.40;;
34559;SDS011;20800;55.870;37.328;2022-09-27T17:51:27;3.70;;;2.55;;
34559;SDS011;20800;55.870;37.328;2022-09-27T17:53:53;4.93;;;3.33;;
34559;SDS011;20800;55.870;37.328;2022-09-27T17:56:20;5.25;;;2.90;;
34559;SDS011;20800;55.870;37.328;2022-09-27T17:58:51;5.43;;;3.15;;
34559;SDS011;20800;55.870;37.328;2022-09-27T18:01:19;3.92;;;3.08;;
34559;SDS011;20800;55.870;37.328;2022-09-27T18:03:51;4.93;;;3.03;;
34559;SDS011;20800;55.870;37.328;2022-09-27T18:06:21;6.25;;;2.85;;
34559;SDS011;20800;55.870;37.328;2022-09-27T18:08:48;4.25;;;2.50;;
34559;SDS011;20800;55.870;37.328;2022-09-27T18:11:16;6.82;;;3.00;;